sensor_id;sensor_type;location;lat;lon;timestamp;temperature;humidity
15554;DHT22;7878;44.632;10.942;2023-04-08T00:01:49;13.60;65.10
15554;DHT22;7878;44.632;10.942;2023-04-08T00:04:16;13.50;66.10
15554;DHT22;7878;44.632;10.942;2023-04-08T00:06:42;13.50;65.20
15554;DHT22;7878;44.632;10.942;2023-04-08T00:09:07;13.60;65.30
15554;DHT22;7878;44.632;10.942;2023-04-08T00:11:33;13.60;65.30
15554;DHT22;7878;44.632;10.942;2023-04-08T00:13:59;13.60;65.30
15554;DHT22;7878;44.632;10.942;2023-04-08T00:16:25;13.60;65.30
15554;DHT22;7878;44.632;10.942;2023-04-08T00:18:50;13.60;65.70
15554;DHT22;7878;44.632;10.942;2023-04-08T00:21:16;13.50;65.80
15554;DHT22;7878;44.632;10.942;2023-04-08T00:23:45;13.50;65.70
15554;DHT22;7878;44.632;10.942;2023-04-08T00:26:10;13.50;66.20
15554;DHT22;7878;44.632;10.942;2023-04-08T00:28:37;13.50;65.30
15554;DHT22;7878;44.632;10.942;2023-04-08T00:31:02;13.50;65.20
15554;DHT22;7878;44.632;10.942;2023-04-08T00:33:28;13.50;65.20
15554;DHT22;7878;44.632;10.942;2023-04-08T00:35:54;13.50;65.60
15554;DHT22;7878;44.632;10.942;2023-04-08T00:38:19;13.50;66.00
15554;DHT22;7878;44.632;10.942;2023-04-08T00:40:45;13.50;65.90
15554;DHT22;7878;44.632;10.942;2023-04-08T00:43:11;13.50;66.20
15554;DHT22;7878;44.632;10.942;2023-04-08T00:45:37;13.50;65.90
15554;DHT22;7878;44.632;10.942;2023-04-08T00:48:03;13.50;65.90
15554;DHT22;7878;44.632;10.942;2023-04-08T00:50:30;13.50;66.20
15554;DHT22;7878;44.632;10.942;2023-04-08T00:52:55;13.50;65.90
15554;DHT22;7878;44.632;10.942;2023-04-08T00:55:21;13.50;66.30
15554;DHT22;7878;44.632;10.942;2023-04-08T00:57:47;13.50;66.40
15554;DHT22;7878;44.632;10.942;2023-04-08T01:00:14;13.50;66.30
15554;DHT22;7878;44.632;10.942;2023-04-08T01:08:26;13.50;66.40
15554;DHT22;7878;44.632;10.942;2023-04-08T01:10:57;13.50;65.80
15554;DHT22;7878;44.632;10.942;2023-04-08T01:13:25;13.40;66.50
15554;DHT22;7878;44.632;10.942;2023-04-08T01:15:53;13.40;67.00
15554;DHT22;7878;44.632;10.942;2023-04-08T01:18:20;13.40;67.40
15554;DHT22;7878;44.632;10.942;2023-04-08T01:20:46;13.40;67.10
15554;DHT22;7878;44.632;10.942;2023-04-08T01:23:36;13.40;67.90
15554;DHT22;7878;44.632;10.942;2023-04-08T01:26:03;13.40;67.70
15554;DHT22;7878;44.632;10.942;2023-04-08T01:28:30;13.40;67.80
15554;DHT22;7878;44.632;10.942;2023-04-08T01:30:58;13.40;67.70
15554;DHT22;7878;44.632;10.942;2023-04-08T01:33:26;13.40;68.20
15554;DHT22;7878;44.632;10.942;2023-04-08T01:35:54;13.40;68.10
15554;DHT22;7878;44.632;10.942;2023-04-08T01:38:22;13.40;67.70
15554;DHT22;7878;44.632;10.942;2023-04-08T01:40:49;13.40;68.30
15554;DHT22;7878;44.632;10.942;2023-04-08T01:43:16;13.40;67.80
15554;DHT22;7878;44.632;10.942;2023-04-08T01:45:44;13.40;67.70
15554;DHT22;7878;44.632;10.942;2023-04-08T01:48:13;13.40;68.20
15554;DHT22;7878;44.632;10.942;2023-04-08T01:50:44;13.40;68.00
15554;DHT22;7878;44.632;10.942;2023-04-08T01:53:10;13.40;67.70
15554;DHT22;7878;44.632;10.942;2023-04-08T01:55:38;13.30;68.00
15554;DHT22;7878;44.632;10.942;2023-04-08T01:58:06;13.30;67.30
15554;DHT22;7878;44.632;10.942;2023-04-08T02:00:33;13.30;68.90
15554;DHT22;7878;44.632;10.942;2023-04-08T02:03:01;13.30;68.90
15554;DHT22;7878;44.632;10.942;2023-04-08T02:05:27;13.30;68.20
15554;DHT22;7878;44.632;10.942;2023-04-08T02:07:53;13.30;68.60
15554;DHT22;7878;44.632;10.942;2023-04-08T02:10:18;13.30;68.10
15554;DHT22;7878;44.632;10.942;2023-04-08T02:12:45;13.20;68.30
15554;DHT22;7878;44.632;10.942;2023-04-08T02:15:12;13.20;68.30
15554;DHT22;7878;44.632;10.942;2023-04-08T02:17:51;13.10;68.30
15554;DHT22;7878;44.632;10.942;2023-04-08T02:25:55;13.00;69.60
15554;DHT22;7878;44.632;10.942;2023-04-08T02:28:21;13.00;68.70
15554;DHT22;7878;44.632;10.942;2023-04-08T02:30:49;13.00;68.30
15554;DHT22;7878;44.632;10.942;2023-04-08T02:33:18;13.00;69.00
15554;DHT22;7878;44.632;10.942;2023-04-08T02:35:44;13.00;69.30
15554;DHT22;7878;44.632;10.942;2023-04-08T02:38:11;12.90;68.90
15554;DHT22;7878;44.632;10.942;2023-04-08T02:40:37;12.90;69.20
15554;DHT22;7878;44.632;10.942;2023-04-08T02:43:03;12.90;69.50
15554;DHT22;7878;44.632;10.942;2023-04-08T02:45:37;12.90;69.70
15554;DHT22;7878;44.632;10.942;2023-04-08T02:48:03;12.90;69.60
15554;DHT22;7878;44.632;10.942;2023-04-08T02:50:30;12.90;68.80
15554;DHT22;7878;44.632;10.942;2023-04-08T02:52:56;12.90;69.10
15554;DHT22;7878;44.632;10.942;2023-04-08T02:55:22;12.90;69.10
15554;DHT22;7878;44.632;10.942;2023-04-08T02:57:48;12.90;69.30
15554;DHT22;7878;44.632;10.942;2023-04-08T03:00:14;12.80;69.50
15554;DHT22;7878;44.632;10.942;2023-04-08T03:02:40;12.80;69.30
15554;DHT22;7878;44.632;10.942;2023-04-08T03:05:06;12.80;69.40
15554;DHT22;7878;44.632;10.942;2023-04-08T03:07:32;12.70;69.90
15554;DHT22;7878;44.632;10.942;2023-04-08T03:09:58;12.70;69.60
15554;DHT22;7878;44.632;10.942;2023-04-08T03:12:24;12.70;70.00
15554;DHT22;7878;44.632;10.942;2023-04-08T03:14:52;12.70;70.20
15554;DHT22;7878;44.632;10.942;2023-04-08T03:17:18;12.70;69.70
15554;DHT22;7878;44.632;10.942;2023-04-08T03:19:43;12.70;69.60
15554;DHT22;7878;44.632;10.942;2023-04-08T03:22:09;12.70;69.60
15554;DHT22;7878;44.632;10.942;2023-04-08T03:24:35;12.70;70.20
15554;DHT22;7878;44.632;10.942;2023-04-08T03:27:02;12.70;70.10
15554;DHT22;7878;44.632;10.942;2023-04-08T03:29:27;12.70;70.20
15554;DHT22;7878;44.632;10.942;2023-04-08T03:31:53;12.70;69.80
15554;DHT22;7878;44.632;10.942;2023-04-08T03:34:19;12.70;70.20
15554;DHT22;7878;44.632;10.942;2023-04-08T03:36:45;12.60;70.30
15554;DHT22;7878;44.632;10.942;2023-04-08T03:39:10;12.60;70.70
15554;DHT22;7878;44.632;10.942;2023-04-08T03:41:36;12.60;71.20
15554;DHT22;7878;44.632;10.942;2023-04-08T03:44:03;12.50;70.20
15554;DHT22;7878;44.632;10.942;2023-04-08T03:46:28;12.50;70.70
15554;DHT22;7878;44.632;10.942;2023-04-08T03:48:54;12.50;70.30
15554;DHT22;7878;44.632;10.942;2023-04-08T03:51:20;12.50;70.40
15554;DHT22;7878;44.632;10.942;2023-04-08T03:53:45;12.50;70.70
15554;DHT22;7878;44.632;10.942;2023-04-08T03:56:12;12.50;70.00
15554;DHT22;7878;44.632;10.942;2023-04-08T03:58:38;12.50;69.90
15554;DHT22;7878;44.632;10.942;2023-04-08T04:01:04;12.50;69.90
15554;DHT22;7878;44.632;10.942;2023-04-08T04:03:29;12.50;70.10
15554;DHT22;7878;44.632;10.942;2023-04-08T04:05:56;12.50;69.90
15554;DHT22;7878;44.632;10.942;2023-04-08T04:08:21;12.50;70.20
15554;DHT22;7878;44.632;10.942;2023-04-08T04:10:47;12.50;70.20
15554;DHT22;7878;44.632;10.942;2023-04-08T04:13:13;12.50;70.20
15554;DHT22;7878;44.632;10.942;2023-04-08T04:15:39;12.50;71.00
15554;DHT22;7878;44.632;10.942;2023-04-08T04:18:06;12.50;70.40
15554;DHT22;7878;44.632;10.942;2023-04-08T04:20:31;12.50;70.60
15554;DHT22;7878;44.632;10.942;2023-04-08T04:22:57;12.50;70.10
15554;DHT22;7878;44.632;10.942;2023-04-08T04:25:23;12.60;70.40
15554;DHT22;7878;44.632;10.942;2023-04-08T04:27:49;12.60;70.10
15554;DHT22;7878;44.632;10.942;2023-04-08T04:30:14;12.60;70.60
15554;DHT22;7878;44.632;10.942;2023-04-08T04:32:41;12.60;70.50
15554;DHT22;7878;44.632;10.942;2023-04-08T04:35:10;12.50;71.20
15554;DHT22;7878;44.632;10.942;2023-04-08T04:37:36;12.50;70.70
15554;DHT22;7878;44.632;10.942;2023-04-08T04:40:05;12.50;70.50
15554;DHT22;7878;44.632;10.942;2023-04-08T04:42:32;12.50;70.40
15554;DHT22;7878;44.632;10.942;2023-04-08T04:44:58;12.50;70.70
15554;DHT22;7878;44.632;10.942;2023-04-08T04:47:24;12.40;70.50
15554;DHT22;7878;44.632;10.942;2023-04-08T04:49:50;12.40;71.50
15554;DHT22;7878;44.632;10.942;2023-04-08T04:52:16;12.40;70.90
15554;DHT22;7878;44.632;10.942;2023-04-08T04:54:41;12.40;70.80
15554;DHT22;7878;44.632;10.942;2023-04-08T04:57:07;12.40;70.50
15554;DHT22;7878;44.632;10.942;2023-04-08T04:59:33;12.50;71.40
15554;DHT22;7878;44.632;10.942;2023-04-08T05:01:58;12.50;71.10
15554;DHT22;7878;44.632;10.942;2023-04-08T05:04:24;12.50;70.70
15554;DHT22;7878;44.632;10.942;2023-04-08T05:06:50;12.50;71.60
15554;DHT22;7878;44.632;10.942;2023-04-08T05:09:16;12.50;71.20
15554;DHT22;7878;44.632;10.942;2023-04-08T05:11:42;12.50;70.80
15554;DHT22;7878;44.632;10.942;2023-04-08T05:14:08;12.50;71.50
15554;DHT22;7878;44.632;10.942;2023-04-08T05:16:33;12.50;70.90
15554;DHT22;7878;44.632;10.942;2023-04-08T05:18:59;12.50;71.40
15554;DHT22;7878;44.632;10.942;2023-04-08T05:21:25;12.50;71.00
15554;DHT22;7878;44.632;10.942;2023-04-08T05:23:52;12.60;71.40
15554;DHT22;7878;44.632;10.942;2023-04-08T05:26:21;12.60;71.70
15554;DHT22;7878;44.632;10.942;2023-04-08T05:28:48;12.60;71.90
15554;DHT22;7878;44.632;10.942;2023-04-08T05:31:17;12.60;71.40
15554;DHT22;7878;44.632;10.942;2023-04-08T05:33:43;12.70;72.00
15554;DHT22;7878;44.632;10.942;2023-04-08T05:36:10;12.70;71.70
15554;DHT22;7878;44.632;10.942;2023-04-08T05:38:36;12.70;71.00
15554;DHT22;7878;44.632;10.942;2023-04-08T05:41:02;12.80;71.00
15554;DHT22;7878;44.632;10.942;2023-04-08T05:43:28;12.80;71.50
15554;DHT22;7878;44.632;10.942;2023-04-08T05:45:54;12.90;71.60
15554;DHT22;7878;44.632;10.942;2023-04-08T05:48:19;12.90;70.90
15554;DHT22;7878;44.632;10.942;2023-04-08T05:50:45;12.90;71.20
15554;DHT22;7878;44.632;10.942;2023-04-08T05:53:13;12.90;71.40
15554;DHT22;7878;44.632;10.942;2023-04-08T05:55:39;12.90;70.80
15554;DHT22;7878;44.632;10.942;2023-04-08T05:58:06;13.00;71.20
15554;DHT22;7878;44.632;10.942;2023-04-08T06:00:31;12.90;71.00
15554;DHT22;7878;44.632;10.942;2023-04-08T06:02:57;12.90;71.00
15554;DHT22;7878;44.632;10.942;2023-04-08T06:05:23;12.80;71.60
15554;DHT22;7878;44.632;10.942;2023-04-08T06:07:49;12.80;71.00
15554;DHT22;7878;44.632;10.942;2023-04-08T06:10:15;12.80;71.30
15554;DHT22;7878;44.632;10.942;2023-04-08T06:12:40;12.80;71.70
15554;DHT22;7878;44.632;10.942;2023-04-08T06:15:08;12.80;72.00
15554;DHT22;7878;44.632;10.942;2023-04-08T06:17:37;12.80;72.10
15554;DHT22;7878;44.632;10.942;2023-04-08T06:20:05;12.80;71.70
15554;DHT22;7878;44.632;10.942;2023-04-08T06:22:31;12.80;71.80
15554;DHT22;7878;44.632;10.942;2023-04-08T06:24:56;12.80;72.00
15554;DHT22;7878;44.632;10.942;2023-04-08T06:27:22;12.80;71.50
15554;DHT22;7878;44.632;10.942;2023-04-08T06:29:48;12.80;71.40
15554;DHT22;7878;44.632;10.942;2023-04-08T06:32:13;12.80;72.10
15554;DHT22;7878;44.632;10.942;2023-04-08T06:34:39;12.80;72.10
15554;DHT22;7878;44.632;10.942;2023-04-08T06:37:05;12.90;72.20
15554;DHT22;7878;44.632;10.942;2023-04-08T06:39:31;12.90;71.50
15554;DHT22;7878;44.632;10.942;2023-04-08T06:41:57;12.90;72.20
15554;DHT22;7878;44.632;10.942;2023-04-08T06:44:23;13.00;71.60
15554;DHT22;7878;44.632;10.942;2023-04-08T06:46:48;13.00;71.50
15554;DHT22;7878;44.632;10.942;2023-04-08T06:49:14;13.10;71.80
15554;DHT22;7878;44.632;10.942;2023-04-08T06:51:40;13.10;71.60
15554;DHT22;7878;44.632;10.942;2023-04-08T06:54:06;13.20;71.80
15554;DHT22;7878;44.632;10.942;2023-04-08T06:56:31;13.50;71.20
15554;DHT22;7878;44.632;10.942;2023-04-08T06:58:57;13.90;71.00
15554;DHT22;7878;44.632;10.942;2023-04-08T07:01:23;14.20;71.10
15554;DHT22;7878;44.632;10.942;2023-04-08T07:03:49;14.40;69.60
15554;DHT22;7878;44.632;10.942;2023-04-08T07:06:15;14.80;69.60
15554;DHT22;7878;44.632;10.942;2023-04-08T07:08:41;15.00;68.60
15554;DHT22;7878;44.632;10.942;2023-04-08T07:11:06;15.10;68.80
15554;DHT22;7878;44.632;10.942;2023-04-08T07:13:32;15.30;68.70
15554;DHT22;7878;44.632;10.942;2023-04-08T07:15:58;15.40;68.00
15554;DHT22;7878;44.632;10.942;2023-04-08T07:18:24;15.60;68.00
15554;DHT22;7878;44.632;10.942;2023-04-08T07:20:54;15.60;67.30
15554;DHT22;7878;44.632;10.942;2023-04-08T07:23:20;15.70;67.40
15554;DHT22;7878;44.632;10.942;2023-04-08T07:25:46;15.80;67.50
15554;DHT22;7878;44.632;10.942;2023-04-08T07:28:12;15.80;68.10
15554;DHT22;7878;44.632;10.942;2023-04-08T07:30:38;15.80;68.00
15554;DHT22;7878;44.632;10.942;2023-04-08T07:33:04;15.90;68.10
15554;DHT22;7878;44.632;10.942;2023-04-08T07:35:30;16.00;67.80
15554;DHT22;7878;44.632;10.942;2023-04-08T07:37:56;16.20;67.60
15554;DHT22;7878;44.632;10.942;2023-04-08T07:40:22;16.30;67.40
15554;DHT22;7878;44.632;10.942;2023-04-08T07:42:48;16.50;67.30
15554;DHT22;7878;44.632;10.942;2023-04-08T07:45:14;16.60;66.90
15554;DHT22;7878;44.632;10.942;2023-04-08T07:47:39;16.60;66.40
15554;DHT22;7878;44.632;10.942;2023-04-08T07:50:06;16.40;66.50
15554;DHT22;7878;44.632;10.942;2023-04-08T07:52:32;16.20;66.80
15554;DHT22;7878;44.632;10.942;2023-04-08T07:54:58;16.10;67.20
15554;DHT22;7878;44.632;10.942;2023-04-08T07:57:25;16.10;67.70
15554;DHT22;7878;44.632;10.942;2023-04-08T07:59:51;16.20;67.80
15554;DHT22;7878;44.632;10.942;2023-04-08T08:02:16;16.10;67.80
15554;DHT22;7878;44.632;10.942;2023-04-08T08:04:42;16.00;67.70
15554;DHT22;7878;44.632;10.942;2023-04-08T08:07:08;15.90;67.60
15554;DHT22;7878;44.632;10.942;2023-04-08T08:09:33;15.80;68.20
15554;DHT22;7878;44.632;10.942;2023-04-08T08:11:59;15.70;67.90
15554;DHT22;7878;44.632;10.942;2023-04-08T08:14:25;15.80;67.80
15554;DHT22;7878;44.632;10.942;2023-04-08T08:16:51;15.90;68.50
15554;DHT22;7878;44.632;10.942;2023-04-08T08:19:19;15.90;67.20
15554;DHT22;7878;44.632;10.942;2023-04-08T08:21:45;16.00;67.10
15554;DHT22;7878;44.632;10.942;2023-04-08T08:24:11;16.10;67.10
15554;DHT22;7878;44.632;10.942;2023-04-08T08:26:37;16.20;67.20
15554;DHT22;7878;44.632;10.942;2023-04-08T08:29:03;16.20;67.40
15554;DHT22;7878;44.632;10.942;2023-04-08T08:31:29;16.20;67.10
15554;DHT22;7878;44.632;10.942;2023-04-08T08:33:55;16.30;67.00
15554;DHT22;7878;44.632;10.942;2023-04-08T08:36:20;16.30;66.80
15554;DHT22;7878;44.632;10.942;2023-04-08T08:38:46;16.40;66.80
15554;DHT22;7878;44.632;10.942;2023-04-08T08:41:12;16.40;66.30
15554;DHT22;7878;44.632;10.942;2023-04-08T08:43:38;16.50;66.30
15554;DHT22;7878;44.632;10.942;2023-04-08T08:46:05;16.50;66.00
15554;DHT22;7878;44.632;10.942;2023-04-08T08:48:32;16.50;65.90
15554;DHT22;7878;44.632;10.942;2023-04-08T08:50:58;16.70;66.70
15554;DHT22;7878;44.632;10.942;2023-04-08T08:53:30;16.80;66.00
15554;DHT22;7878;44.632;10.942;2023-04-08T08:55:56;16.90;66.20
15554;DHT22;7878;44.632;10.942;2023-04-08T08:58:26;16.80;65.90
15554;DHT22;7878;44.632;10.942;2023-04-08T09:00:52;16.70;65.80
15554;DHT22;7878;44.632;10.942;2023-04-08T09:03:21;16.80;65.70
15554;DHT22;7878;44.632;10.942;2023-04-08T09:08:34;16.80;66.00
15554;DHT22;7878;44.632;10.942;2023-04-08T09:11:13;16.90;66.00
15554;DHT22;7878;44.632;10.942;2023-04-08T09:13:40;17.10;65.70
15554;DHT22;7878;44.632;10.942;2023-04-08T09:16:11;17.30;65.10
15554;DHT22;7878;44.632;10.942;2023-04-08T09:18:37;17.70;64.60
15554;DHT22;7878;44.632;10.942;2023-04-08T09:21:04;17.90;64.10
15554;DHT22;7878;44.632;10.942;2023-04-08T09:26:13;19.60;63.20
15554;DHT22;7878;44.632;10.942;2023-04-08T09:28:41;19.20;62.20
15554;DHT22;7878;44.632;10.942;2023-04-08T09:33:53;18.20;63.10
15554;DHT22;7878;44.632;10.942;2023-04-08T09:36:20;17.90;63.00
15554;DHT22;7878;44.632;10.942;2023-04-08T09:38:46;17.90;63.70
15554;DHT22;7878;44.632;10.942;2023-04-08T09:41:14;17.90;63.00
15554;DHT22;7878;44.632;10.942;2023-04-08T09:43:47;18.00;62.90
15554;DHT22;7878;44.632;10.942;2023-04-08T09:46:15;18.20;63.10
15554;DHT22;7878;44.632;10.942;2023-04-08T09:49:00;18.50;62.70
15554;DHT22;7878;44.632;10.942;2023-04-08T09:51:31;18.50;62.80
15554;DHT22;7878;44.632;10.942;2023-04-08T09:54:01;18.40;62.30
15554;DHT22;7878;44.632;10.942;2023-04-08T09:56:37;18.20;62.20
15554;DHT22;7878;44.632;10.942;2023-04-08T09:59:13;18.30;62.00
15554;DHT22;7878;44.632;10.942;2023-04-08T10:01:45;18.30;62.20
15554;DHT22;7878;44.632;10.942;2023-04-08T10:04:14;18.40;62.30
15554;DHT22;7878;44.632;10.942;2023-04-08T10:06:42;18.50;62.00
15554;DHT22;7878;44.632;10.942;2023-04-08T10:09:08;18.60;62.40
15554;DHT22;7878;44.632;10.942;2023-04-08T10:11:34;18.60;61.50
15554;DHT22;7878;44.632;10.942;2023-04-08T10:14:01;18.50;61.30
15554;DHT22;7878;44.632;10.942;2023-04-08T10:16:27;18.40;61.20
15554;DHT22;7878;44.632;10.942;2023-04-08T10:18:54;18.30;61.20
15554;DHT22;7878;44.632;10.942;2023-04-08T10:21:34;18.40;61.50
15554;DHT22;7878;44.632;10.942;2023-04-08T10:24:01;18.70;61.00
15554;DHT22;7878;44.632;10.942;2023-04-08T10:26:34;18.80;60.50
15554;DHT22;7878;44.632;10.942;2023-04-08T10:31:53;19.00;59.30
15554;DHT22;7878;44.632;10.942;2023-04-08T10:34:20;19.10;59.40
15554;DHT22;7878;44.632;10.942;2023-04-08T10:36:47;19.30;59.20
15554;DHT22;7878;44.632;10.942;2023-04-08T10:39:16;19.50;58.90
15554;DHT22;7878;44.632;10.942;2023-04-08T10:44:22;19.70;56.90
15554;DHT22;7878;44.632;10.942;2023-04-08T10:46:49;19.80;55.50
15554;DHT22;7878;44.632;10.942;2023-04-08T10:49:16;19.80;56.50
15554;DHT22;7878;44.632;10.942;2023-04-08T10:51:43;20.00;56.30
15554;DHT22;7878;44.632;10.942;2023-04-08T10:54:15;20.10;56.50
15554;DHT22;7878;44.632;10.942;2023-04-08T10:56:49;20.50;55.40
15554;DHT22;7878;44.632;10.942;2023-04-08T10:59:25;20.90;55.20
15554;DHT22;7878;44.632;10.942;2023-04-08T11:01:51;21.40;55.70
15554;DHT22;7878;44.632;10.942;2023-04-08T11:04:17;21.70;55.00
15554;DHT22;7878;44.632;10.942;2023-04-08T11:06:45;22.30;54.60
15554;DHT22;7878;44.632;10.942;2023-04-08T11:09:12;22.70;54.00
15554;DHT22;7878;44.632;10.942;2023-04-08T11:11:40;23.10;54.00
15554;DHT22;7878;44.632;10.942;2023-04-08T11:14:06;23.70;52.90
15554;DHT22;7878;44.632;10.942;2023-04-08T11:16:33;23.50;52.90
15554;DHT22;7878;44.632;10.942;2023-04-08T11:19:01;23.30;53.30
15554;DHT22;7878;44.632;10.942;2023-04-08T11:21:27;23.20;52.60
15554;DHT22;7878;44.632;10.942;2023-04-08T11:23:54;23.20;53.10
15554;DHT22;7878;44.632;10.942;2023-04-08T11:26:20;23.60;52.80
15554;DHT22;7878;44.632;10.942;2023-04-08T11:28:46;24.50;52.00
15554;DHT22;7878;44.632;10.942;2023-04-08T11:31:17;25.90;50.20
15554;DHT22;7878;44.632;10.942;2023-04-08T11:33:47;27.80;48.40
15554;DHT22;7878;44.632;10.942;2023-04-08T11:36:13;29.20;47.80
15554;DHT22;7878;44.632;10.942;2023-04-08T11:38:39;30.60;46.10
15554;DHT22;7878;44.632;10.942;2023-04-08T11:41:08;31.40;45.20
15554;DHT22;7878;44.632;10.942;2023-04-08T11:43:36;31.00;45.30
15554;DHT22;7878;44.632;10.942;2023-04-08T11:46:11;28.70;42.20
15554;DHT22;7878;44.632;10.942;2023-04-08T11:48:37;26.20;45.40
15554;DHT22;7878;44.632;10.942;2023-04-08T11:51:05;24.70;48.50
15554;DHT22;7878;44.632;10.942;2023-04-08T11:53:34;23.60;48.60
15554;DHT22;7878;44.632;10.942;2023-04-08T11:56:19;22.80;50.80
15554;DHT22;7878;44.632;10.942;2023-04-08T11:58:45;22.40;50.40
15554;DHT22;7878;44.632;10.942;2023-04-08T12:01:12;21.90;51.40
15554;DHT22;7878;44.632;10.942;2023-04-08T12:03:38;21.60;52.10
15554;DHT22;7878;44.632;10.942;2023-04-08T12:06:03;21.50;52.70
15554;DHT22;7878;44.632;10.942;2023-04-08T12:08:31;21.50;52.10
15554;DHT22;7878;44.632;10.942;2023-04-08T12:10:57;21.40;52.00
15554;DHT22;7878;44.632;10.942;2023-04-08T12:13:22;21.40;52.30
15554;DHT22;7878;44.632;10.942;2023-04-08T12:15:48;21.20;51.00
15554;DHT22;7878;44.632;10.942;2023-04-08T12:18:14;21.00;52.10
15554;DHT22;7878;44.632;10.942;2023-04-08T12:20:40;20.70;50.90
15554;DHT22;7878;44.632;10.942;2023-04-08T12:23:06;20.20;52.20
15554;DHT22;7878;44.632;10.942;2023-04-08T12:25:32;20.00;52.60
15554;DHT22;7878;44.632;10.942;2023-04-08T12:27:58;19.90;52.80
15554;DHT22;7878;44.632;10.942;2023-04-08T12:30:24;19.80;51.80
15554;DHT22;7878;44.632;10.942;2023-04-08T12:32:49;19.80;52.00
15554;DHT22;7878;44.632;10.942;2023-04-08T12:35:15;19.90;52.00
15554;DHT22;7878;44.632;10.942;2023-04-08T12:37:40;19.90;52.40
15554;DHT22;7878;44.632;10.942;2023-04-08T12:40:07;20.00;52.60
15554;DHT22;7878;44.632;10.942;2023-04-08T12:42:32;20.00;51.80
15554;DHT22;7878;44.632;10.942;2023-04-08T12:44:59;20.10;51.70
15554;DHT22;7878;44.632;10.942;2023-04-08T12:47:25;20.10;52.40
15554;DHT22;7878;44.632;10.942;2023-04-08T12:49:50;20.10;52.20
15554;DHT22;7878;44.632;10.942;2023-04-08T12:52:16;20.00;51.90
15554;DHT22;7878;44.632;10.942;2023-04-08T12:54:43;20.00;52.50
15554;DHT22;7878;44.632;10.942;2023-04-08T12:57:08;20.00;52.80
15554;DHT22;7878;44.632;10.942;2023-04-08T12:59:34;20.00;52.60
15554;DHT22;7878;44.632;10.942;2023-04-08T13:02:00;20.00;52.10
15554;DHT22;7878;44.632;10.942;2023-04-08T13:04:26;19.90;52.50
15554;DHT22;7878;44.632;10.942;2023-04-08T13:06:51;19.80;51.90
15554;DHT22;7878;44.632;10.942;2023-04-08T13:09:17;19.80;52.00
15554;DHT22;7878;44.632;10.942;2023-04-08T13:11:43;19.80;52.40
15554;DHT22;7878;44.632;10.942;2023-04-08T13:14:08;19.90;52.30
15554;DHT22;7878;44.632;10.942;2023-04-08T13:16:34;19.90;52.10
15554;DHT22;7878;44.632;10.942;2023-04-08T13:19:00;19.80;51.60
15554;DHT22;7878;44.632;10.942;2023-04-08T13:21:25;19.70;52.40
15554;DHT22;7878;44.632;10.942;2023-04-08T13:23:51;19.70;52.10
15554;DHT22;7878;44.632;10.942;2023-04-08T13:26:17;19.70;52.10
15554;DHT22;7878;44.632;10.942;2023-04-08T13:28:43;19.80;52.40
15554;DHT22;7878;44.632;10.942;2023-04-08T13:31:08;19.90;51.80
15554;DHT22;7878;44.632;10.942;2023-04-08T13:33:34;19.90;52.00
15554;DHT22;7878;44.632;10.942;2023-04-08T13:36:00;20.00;52.00
15554;DHT22;7878;44.632;10.942;2023-04-08T13:38:25;20.10;51.70
15554;DHT22;7878;44.632;10.942;2023-04-08T13:40:51;20.20;51.30
15554;DHT22;7878;44.632;10.942;2023-04-08T13:43:17;20.10;50.30
15554;DHT22;7878;44.632;10.942;2023-04-08T13:45:43;20.10;50.30
15554;DHT22;7878;44.632;10.942;2023-04-08T13:48:09;20.10;50.70
15554;DHT22;7878;44.632;10.942;2023-04-08T13:50:34;20.00;53.60
15554;DHT22;7878;44.632;10.942;2023-04-08T13:53:00;20.00;54.70
15554;DHT22;7878;44.632;10.942;2023-04-08T13:55:26;19.90;55.00
15554;DHT22;7878;44.632;10.942;2023-04-08T13:57:52;19.80;55.20
15554;DHT22;7878;44.632;10.942;2023-04-08T14:00:17;19.60;55.50
15554;DHT22;7878;44.632;10.942;2023-04-08T14:02:43;19.50;55.80
15554;DHT22;7878;44.632;10.942;2023-04-08T14:05:09;19.40;56.90
15554;DHT22;7878;44.632;10.942;2023-04-08T14:07:35;19.40;56.60
15554;DHT22;7878;44.632;10.942;2023-04-08T14:10:00;19.30;56.70
15554;DHT22;7878;44.632;10.942;2023-04-08T14:12:26;19.20;57.10
15554;DHT22;7878;44.632;10.942;2023-04-08T14:14:52;19.10;56.90
15554;DHT22;7878;44.632;10.942;2023-04-08T14:17:17;19.00;57.00
15554;DHT22;7878;44.632;10.942;2023-04-08T14:19:43;19.00;56.80
15554;DHT22;7878;44.632;10.942;2023-04-08T14:22:08;19.10;56.80
15554;DHT22;7878;44.632;10.942;2023-04-08T14:24:34;19.00;56.30
15554;DHT22;7878;44.632;10.942;2023-04-08T14:27:00;19.10;56.60
15554;DHT22;7878;44.632;10.942;2023-04-08T14:29:26;19.10;56.40
15554;DHT22;7878;44.632;10.942;2023-04-08T14:31:52;19.10;55.90
15554;DHT22;7878;44.632;10.942;2023-04-08T14:34:17;19.10;55.90
15554;DHT22;7878;44.632;10.942;2023-04-08T14:36:43;19.30;55.70
15554;DHT22;7878;44.632;10.942;2023-04-08T14:39:09;19.40;55.60
15554;DHT22;7878;44.632;10.942;2023-04-08T14:41:36;19.60;55.50
15554;DHT22;7878;44.632;10.942;2023-04-08T14:44:02;19.70;55.10
15554;DHT22;7878;44.632;10.942;2023-04-08T14:46:28;19.80;54.90
15554;DHT22;7878;44.632;10.942;2023-04-08T14:48:54;19.90;54.60
15554;DHT22;7878;44.632;10.942;2023-04-08T14:51:20;19.80;54.70
15554;DHT22;7878;44.632;10.942;2023-04-08T14:53:45;19.80;54.40
15554;DHT22;7878;44.632;10.942;2023-04-08T14:56:11;19.80;54.90
15554;DHT22;7878;44.632;10.942;2023-04-08T14:58:37;19.80;54.40
15554;DHT22;7878;44.632;10.942;2023-04-08T15:01:03;19.70;54.70
15554;DHT22;7878;44.632;10.942;2023-04-08T15:03:28;19.70;54.90
15554;DHT22;7878;44.632;10.942;2023-04-08T15:05:55;19.70;54.70
15554;DHT22;7878;44.632;10.942;2023-04-08T15:08:21;19.80;55.10
15554;DHT22;7878;44.632;10.942;2023-04-08T15:10:46;19.80;54.60
15554;DHT22;7878;44.632;10.942;2023-04-08T15:13:12;19.70;54.50
15554;DHT22;7878;44.632;10.942;2023-04-08T15:15:38;19.60;54.80
15554;DHT22;7878;44.632;10.942;2023-04-08T15:18:03;19.60;54.80
15554;DHT22;7878;44.632;10.942;2023-04-08T15:20:29;19.60;54.60
15554;DHT22;7878;44.632;10.942;2023-04-08T15:22:55;19.50;54.60
15554;DHT22;7878;44.632;10.942;2023-04-08T15:25:20;19.40;53.70
15554;DHT22;7878;44.632;10.942;2023-04-08T15:27:46;19.30;54.20
15554;DHT22;7878;44.632;10.942;2023-04-08T15:30:13;19.20;54.00
15554;DHT22;7878;44.632;10.942;2023-04-08T15:32:39;19.20;54.50
15554;DHT22;7878;44.632;10.942;2023-04-08T15:35:06;19.30;54.20
15554;DHT22;7878;44.632;10.942;2023-04-08T15:37:32;19.30;53.20
15554;DHT22;7878;44.632;10.942;2023-04-08T15:39:57;19.30;53.30
15554;DHT22;7878;44.632;10.942;2023-04-08T15:42:23;19.30;53.20
15554;DHT22;7878;44.632;10.942;2023-04-08T15:44:49;19.30;53.60
15554;DHT22;7878;44.632;10.942;2023-04-08T15:47:14;19.40;53.80
15554;DHT22;7878;44.632;10.942;2023-04-08T15:49:40;19.40;54.00
15554;DHT22;7878;44.632;10.942;2023-04-08T15:52:06;19.40;53.90